createdAt,value
2019-03-21T00:00:38.382Z,7.40
2019-03-21T00:03:09.201Z,7.40
2019-03-21T00:05:39.910Z,7.40
2019-03-21T00:08:11.919Z,7.40
2019-03-21T00:11:20.589Z,7.50
2019-03-21T00:13:52.840Z,7.40
2019-03-21T00:16:23.654Z,7.40
2019-03-21T00:18:54.500Z,7.50
2019-03-21T00:21:25.221Z,7.40
2019-03-21T00:23:55.928Z,7.50
2019-03-21T00:26:26.552Z,7.40
2019-03-21T00:28:57.278Z,7.50
2019-03-21T00:31:27.981Z,7.50
2019-03-21T00:33:59.015Z,7.50
2019-03-21T00:36:29.832Z,7.50
2019-03-21T00:39:00.531Z,7.50
2019-03-21T00:41:31.334Z,7.60
2019-03-21T00:44:01.958Z,7.50
2019-03-21T00:46:32.679Z,7.60
2019-03-21T00:49:03.324Z,7.60
2019-03-21T00:51:33.944Z,7.70
2019-03-21T00:54:05.911Z,7.70
2019-03-21T00:56:36.546Z,7.70
2019-03-21T00:59:07.198Z,7.70
2019-03-21T01:01:37.909Z,7.70
2019-03-21T01:04:08.698Z,7.80
2019-03-21T01:06:39.378Z,7.90
2019-03-21T01:09:11.394Z,7.90
2019-03-21T01:11:42.025Z,8.00
2019-03-21T01:14:12.822Z,8.00
2019-03-21T01:16:43.486Z,8.00
2019-03-21T01:19:14.242Z,8.10
2019-03-21T01:21:44.905Z,8.00
2019-03-21T01:24:16.303Z,8.00
2019-03-21T01:26:46.898Z,8.10
2019-03-21T01:29:17.807Z,8.10
2019-03-21T01:31:48.446Z,8.10
2019-03-21T01:34:19.078Z,8.10
2019-03-21T01:36:49.745Z,8.10
2019-03-21T01:39:20.487Z,8.10
2019-03-21T01:41:51.278Z,8.10
2019-03-21T01:44:21.870Z,8.10
2019-03-21T01:46:52.541Z,8.10
2019-03-21T01:49:23.206Z,8.10
2019-03-21T01:51:53.938Z,8.10
2019-03-21T01:54:24.854Z,8.10
2019-03-21T01:56:55.637Z,8.00
2019-03-21T01:59:26.371Z,8.00
2019-03-21T02:01:58.071Z,8.00
2019-03-21T02:04:28.669Z,8.00
2019-03-21T02:06:59.462Z,8.00
2019-03-21T02:09:30.222Z,8.00
2019-03-21T02:12:00.967Z,7.90
2019-03-21T02:14:31.713Z,7.90
2019-03-21T02:17:02.522Z,7.90
2019-03-21T02:19:33.209Z,7.90
2019-03-21T02:22:03.869Z,7.90
2019-03-21T02:24:34.653Z,7.80
2019-03-21T02:27:05.540Z,7.80
2019-03-21T02:29:36.228Z,7.80
2019-03-21T02:32:06.937Z,7.80
2019-03-21T02:34:37.717Z,7.80
2019-03-21T02:37:08.361Z,7.80
2019-03-21T02:39:39.367Z,7.80
2019-03-21T02:42:10.047Z,7.80
2019-03-21T02:44:40.839Z,7.80
2019-03-21T02:47:11.525Z,7.80
2019-03-21T02:49:42.172Z,7.80
2019-03-21T02:52:12.830Z,7.80
2019-03-21T02:54:43.454Z,7.80
2019-03-21T02:57:14.203Z,7.80
2019-03-21T02:59:44.907Z,7.80
2019-03-21T03:02:15.629Z,7.80
2019-03-21T03:04:46.378Z,7.80
2019-03-21T03:07:18.019Z,7.70
2019-03-21T03:09:48.595Z,7.70
2019-03-21T03:12:19.186Z,7.70
2019-03-21T03:14:50.102Z,7.60
2019-03-21T03:17:20.913Z,7.60
2019-03-21T03:19:51.504Z,7.60
2019-03-21T03:22:22.226Z,7.60
2019-03-21T03:24:52.863Z,7.70
2019-03-21T03:27:23.534Z,7.70
2019-03-21T03:29:54.215Z,7.70
2019-03-21T03:32:25.301Z,7.70
2019-03-21T03:34:55.918Z,7.70
2019-03-21T03:37:26.761Z,7.70
2019-03-21T03:39:57.583Z,7.70
2019-03-21T03:42:28.226Z,7.70
2019-03-21T03:44:58.958Z,7.70
2019-03-21T03:47:29.605Z,7.60
2019-03-21T03:50:00.487Z,7.70
2019-03-21T03:52:31.146Z,7.70
2019-03-21T03:55:02.009Z,7.70
2019-03-21T03:57:32.871Z,7.60
2019-03-21T04:00:03.677Z,7.60
2019-03-21T04:02:34.605Z,7.60
2019-03-21T04:05:05.686Z,7.60
2019-03-21T04:07:36.514Z,7.60
2019-03-21T04:10:09.624Z,7.60
2019-03-21T04:12:40.531Z,7.60
2019-03-21T04:15:11.630Z,7.60
2019-03-21T04:17:42.276Z,7.60
2019-03-21T04:20:14.963Z,7.60
2019-03-21T04:22:45.955Z,7.60
2019-03-21T04:25:19.679Z,7.60
2019-03-21T04:27:50.354Z,7.60
2019-03-21T04:30:21.140Z,7.50
2019-03-21T04:32:51.810Z,7.50
2019-03-21T04:35:22.388Z,7.50
2019-03-21T04:37:53.131Z,7.60
2019-03-21T04:40:23.806Z,7.60
2019-03-21T04:42:54.445Z,7.60
2019-03-21T04:45:25.117Z,7.50
2019-03-21T04:47:55.727Z,7.50
2019-03-21T04:50:26.925Z,7.50
2019-03-21T04:52:57.832Z,7.50
2019-03-21T04:55:28.751Z,7.50
2019-03-21T04:57:59.352Z,7.50
2019-03-21T05:00:31.542Z,7.50
2019-03-21T05:03:03.165Z,7.50
2019-03-21T05:05:34.770Z,7.50
2019-03-21T05:08:05.704Z,7.50
2019-03-21T05:10:36.554Z,7.50
2019-03-21T05:13:07.289Z,7.50
2019-03-21T05:15:39.398Z,7.50
2019-03-21T05:18:13.291Z,7.50
2019-03-21T05:20:43.934Z,7.50
2019-03-21T05:23:14.615Z,7.60
2019-03-21T05:25:45.266Z,7.60
2019-03-21T05:28:16.078Z,7.60
2019-03-21T05:30:58.549Z,7.60
2019-03-21T05:33:29.331Z,7.60
2019-03-21T05:36:00.157Z,7.60
2019-03-21T05:38:31.642Z,7.70
2019-03-21T05:41:02.298Z,7.70
2019-03-21T05:43:39.382Z,7.70
2019-03-21T05:46:10.044Z,7.70
2019-03-21T05:48:40.655Z,7.70
2019-03-21T05:51:11.369Z,7.80
2019-03-21T05:53:41.972Z,7.80
2019-03-21T05:56:12.894Z,7.90
2019-03-21T05:58:43.542Z,8.00
2019-03-21T06:01:14.387Z,8.00
2019-03-21T06:03:51.963Z,8.00
2019-03-21T06:07:03.649Z,8.00
2019-03-21T06:09:34.261Z,8.00
2019-03-21T06:12:05.068Z,8.00
2019-03-21T06:14:36.973Z,8.10
2019-03-21T06:17:07.710Z,8.00
2019-03-21T06:20:27.802Z,8.10
2019-03-21T06:23:25.957Z,8.10
2019-03-21T06:26:30.669Z,8.10
2019-03-21T06:29:02.445Z,8.20
2019-03-21T06:31:33.095Z,8.30
2019-03-21T06:34:04.009Z,8.40
2019-03-21T06:36:34.737Z,8.50
2019-03-21T06:39:07.898Z,8.60
2019-03-21T06:41:38.591Z,8.60
2019-03-21T06:44:09.290Z,8.70
2019-03-21T06:46:48.818Z,8.70
2019-03-21T06:49:12.302Z,8.80
2019-03-21T06:51:44.005Z,8.80
2019-03-21T06:54:14.706Z,9.00
2019-03-21T06:56:45.306Z,9.10
2019-03-21T06:59:18.703Z,9.10
2019-03-21T07:01:49.278Z,9.20
2019-03-21T07:04:19.882Z,9.30
2019-03-21T07:06:51.367Z,9.30
2019-03-21T07:09:21.982Z,9.30
2019-03-21T07:11:52.769Z,9.40
2019-03-21T07:14:23.441Z,9.40
2019-03-21T07:17:05.307Z,9.40
2019-03-21T07:19:36.030Z,9.50
2019-03-21T07:22:06.751Z,9.60
2019-03-21T07:24:37.489Z,9.60
2019-03-21T07:27:08.283Z,9.70
2019-03-21T07:29:38.856Z,9.60
2019-03-21T07:32:09.475Z,9.60
2019-03-21T07:34:40.128Z,9.60
2019-03-21T07:37:10.857Z,9.60
2019-03-21T07:39:41.449Z,9.60
2019-03-21T07:42:12.090Z,9.60
2019-03-21T07:44:42.740Z,9.70
2019-03-21T07:47:13.603Z,9.70
2019-03-21T07:49:44.531Z,9.80
2019-03-21T07:52:15.342Z,9.80
2019-03-21T07:54:45.942Z,9.90
2019-03-21T07:57:16.710Z,10.00
2019-03-21T07:59:47.501Z,10.10
2019-03-21T08:02:18.291Z,10.10
2019-03-21T08:04:48.890Z,10.20
2019-03-21T08:07:20.468Z,10.20
2019-03-21T08:09:51.139Z,10.30
2019-03-21T08:12:21.877Z,10.50
2019-03-21T08:14:52.645Z,10.80
2019-03-21T08:17:23.619Z,10.80
2019-03-21T08:19:54.267Z,10.70
2019-03-21T08:22:24.879Z,10.70
2019-03-21T08:24:55.768Z,10.90
2019-03-21T08:27:26.470Z,11.00
2019-03-21T08:29:57.113Z,11.00
2019-03-21T08:32:28.004Z,10.90
2019-03-21T08:34:58.730Z,10.80
2019-03-21T08:37:29.449Z,11.00
2019-03-21T08:40:00.325Z,11.00
2019-03-21T08:42:30.974Z,11.10
2019-03-21T08:45:01.678Z,11.20
2019-03-21T08:47:32.430Z,11.50
2019-03-21T08:50:03.185Z,11.90
2019-03-21T08:52:33.965Z,12.20
2019-03-21T08:55:04.902Z,12.30
2019-03-21T08:57:35.681Z,12.50
2019-03-21T09:00:07.042Z,12.30
2019-03-21T09:02:38.441Z,12.40
2019-03-21T09:05:09.181Z,12.20
2019-03-21T09:07:40.738Z,12.30
2019-03-21T09:10:11.590Z,12.30
2019-03-21T09:12:42.764Z,12.20
2019-03-21T09:15:13.658Z,12.00
2019-03-21T09:17:44.330Z,11.60
2019-03-21T09:20:14.989Z,11.50
2019-03-21T09:22:45.704Z,11.50
2019-03-21T09:25:16.558Z,11.50
2019-03-21T09:27:47.176Z,11.70
2019-03-21T09:30:18.078Z,11.90
2019-03-21T09:32:49.750Z,12.00
2019-03-21T09:35:20.406Z,12.00
2019-03-21T09:37:51.264Z,11.80
2019-03-21T09:40:22.035Z,11.60
2019-03-21T09:42:52.727Z,11.40
2019-03-21T09:45:23.317Z,11.30
2019-03-21T09:47:54.009Z,11.30
2019-03-21T09:50:29.332Z,11.40
2019-03-21T09:52:59.957Z,11.30
2019-03-21T09:55:30.683Z,11.30
2019-03-21T09:58:01.333Z,11.30
2019-03-21T10:00:35.753Z,11.40
2019-03-21T10:03:07.180Z,11.50
2019-03-21T10:05:37.954Z,11.50
2019-03-21T10:08:09.714Z,11.80
2019-03-21T10:10:40.346Z,11.80
2019-03-21T10:13:11.087Z,12.20
2019-03-21T10:15:41.751Z,12.70
2019-03-21T10:18:12.489Z,13.40
2019-03-21T10:20:43.085Z,14.10
2019-03-21T10:23:13.775Z,14.40
2019-03-21T10:25:44.474Z,14.90
2019-03-21T10:28:15.185Z,14.50
2019-03-21T10:30:45.874Z,14.00
2019-03-21T10:33:17.678Z,13.40
2019-03-21T10:35:48.710Z,13.10
2019-03-21T10:38:20.907Z,12.80
2019-03-21T10:40:52.170Z,12.70
2019-03-21T10:43:22.965Z,12.40
2019-03-21T10:45:53.822Z,12.20
2019-03-21T10:48:25.062Z,12.20
2019-03-21T10:50:56.447Z,12.00
2019-03-21T10:53:27.255Z,12.00
2019-03-21T10:55:57.944Z,12.00
2019-03-21T10:58:28.690Z,12.30
2019-03-21T11:00:59.523Z,13.00
2019-03-21T11:03:30.476Z,13.10
2019-03-21T11:06:01.170Z,13.10
2019-03-21T11:08:32.930Z,13.10
2019-03-21T11:11:03.545Z,13.10
2019-03-21T11:13:34.358Z,13.10
2019-03-21T11:16:05.070Z,13.60
2019-03-21T11:18:36.533Z,14.10
2019-03-21T11:21:07.639Z,14.70
2019-03-21T11:23:38.262Z,14.60
2019-03-21T11:26:08.933Z,14.50
2019-03-21T11:28:39.702Z,14.00
2019-03-21T11:31:10.451Z,13.40
2019-03-21T11:33:41.167Z,12.80
2019-03-21T11:36:11.721Z,12.60
2019-03-21T11:38:42.729Z,12.50
2019-03-21T11:41:13.521Z,12.40
2019-03-21T11:43:45.818Z,12.30
2019-03-21T11:46:16.817Z,12.30
2019-03-21T11:48:47.438Z,12.40
2019-03-21T11:51:18.118Z,12.90
2019-03-21T11:53:48.846Z,13.40
2019-03-21T11:56:19.559Z,14.00
2019-03-21T11:58:50.303Z,14.20
2019-03-21T12:01:20.932Z,13.90
2019-03-21T12:03:51.633Z,13.90
2019-03-21T12:06:22.295Z,14.10
2019-03-21T12:08:53.924Z,14.00
2019-03-21T12:11:24.546Z,13.90
2019-03-21T12:13:55.198Z,13.80
2019-03-21T12:16:25.959Z,13.50
2019-03-21T12:18:56.760Z,13.40
2019-03-21T12:21:27.459Z,13.30
2019-03-21T12:23:58.078Z,13.10
2019-03-21T12:26:28.850Z,13.00
2019-03-21T12:28:59.550Z,13.10
2019-03-21T12:31:30.117Z,13.50
2019-03-21T12:34:00.866Z,13.90
2019-03-21T12:36:31.477Z,14.40
2019-03-21T12:39:02.112Z,14.70
2019-03-21T12:41:34.043Z,14.50
2019-03-21T12:44:04.675Z,14.30
2019-03-21T12:46:35.603Z,14.80
2019-03-21T12:49:06.272Z,15.30
2019-03-21T12:51:37.047Z,15.60
2019-03-21T12:54:07.741Z,15.70
2019-03-21T12:56:38.546Z,15.90
2019-03-21T12:59:09.375Z,15.90
2019-03-21T13:01:40.099Z,15.60
2019-03-21T13:04:10.691Z,15.50
2019-03-21T13:06:41.345Z,14.90
2019-03-21T13:09:13.518Z,15.00
2019-03-21T13:11:44.134Z,15.40
2019-03-21T13:14:14.766Z,15.30
2019-03-21T13:16:45.579Z,14.40
2019-03-21T13:19:16.177Z,13.70
2019-03-21T13:21:46.845Z,13.30
2019-03-21T13:24:19.565Z,13.10
2019-03-21T13:26:49.945Z,13.10
2019-03-21T13:29:20.614Z,13.70
2019-03-21T13:31:51.200Z,14.20
2019-03-21T13:34:22.872Z,14.20
2019-03-21T13:36:53.634Z,14.10
2019-03-21T13:39:24.353Z,14.60
2019-03-21T13:41:55.060Z,14.80
2019-03-21T13:44:25.725Z,14.50
2019-03-21T13:46:56.411Z,14.10
2019-03-21T13:49:27.099Z,14.00
2019-03-21T13:51:57.742Z,13.90
2019-03-21T13:54:28.438Z,13.90
2019-03-21T13:56:59.111Z,13.90
2019-03-21T13:59:30.534Z,13.80
2019-03-21T14:02:01.339Z,13.70
2019-03-21T14:04:31.967Z,13.30
2019-03-21T14:07:02.898Z,13.60
2019-03-21T14:09:34.449Z,13.90
2019-03-21T14:12:05.327Z,13.80
2019-03-21T14:14:36.177Z,13.90
2019-03-21T14:17:06.886Z,14.10
2019-03-21T14:19:37.597Z,13.80
2019-03-21T14:22:08.341Z,13.30
2019-03-21T14:24:39.087Z,13.00
2019-03-21T14:27:09.845Z,12.80
2019-03-21T14:29:40.790Z,12.70
2019-03-21T14:32:11.467Z,12.70
2019-03-21T14:34:42.278Z,12.80
2019-03-21T14:37:12.990Z,12.90
2019-03-21T14:39:43.720Z,12.80
2019-03-21T14:42:14.649Z,12.70
2019-03-21T14:44:45.315Z,12.70
2019-03-21T14:47:16.023Z,12.80
2019-03-21T14:49:46.699Z,12.80
2019-03-21T14:52:17.493Z,13.00
2019-03-21T14:54:48.118Z,13.10
2019-03-21T14:57:19.022Z,13.00
2019-03-21T14:59:49.814Z,13.10
2019-03-21T15:02:20.390Z,13.10
2019-03-21T15:04:51.111Z,13.10
2019-03-21T15:07:21.738Z,13.10
2019-03-21T15:09:53.747Z,13.10
2019-03-21T15:12:24.366Z,13.00
2019-03-21T15:14:55.161Z,12.90
2019-03-21T15:17:25.906Z,12.80
2019-03-21T15:19:56.529Z,12.90
2019-03-21T15:22:27.136Z,12.90
2019-03-21T15:24:57.756Z,12.90
2019-03-21T15:27:28.367Z,12.90
2019-03-21T15:29:59.171Z,13.00
2019-03-21T15:32:29.974Z,12.90
2019-03-21T15:35:00.835Z,13.00
2019-03-21T15:37:31.541Z,12.90
2019-03-21T15:40:03.290Z,12.90
2019-03-21T15:42:34.086Z,12.90
2019-03-21T15:45:20.438Z,12.80
2019-03-21T15:47:38.242Z,12.70
2019-03-21T15:50:10.014Z,12.70
2019-03-21T15:52:40.899Z,12.70
2019-03-21T15:55:11.538Z,12.70
2019-03-21T15:57:43.306Z,12.70
2019-03-21T16:00:17.904Z,12.60
2019-03-21T16:02:48.606Z,12.60
2019-03-21T16:05:19.353Z,12.60
2019-03-21T16:07:49.933Z,12.50
2019-03-21T16:10:21.703Z,12.50
2019-03-21T16:12:52.401Z,12.50
2019-03-21T16:15:23.044Z,12.50
2019-03-21T16:17:53.813Z,12.40
2019-03-21T16:20:24.427Z,12.50
2019-03-21T16:22:55.138Z,12.40
2019-03-21T16:25:25.797Z,12.40
2019-03-21T16:27:56.504Z,12.40
2019-03-21T16:30:27.260Z,12.30
2019-03-21T16:32:57.925Z,12.40
2019-03-21T16:35:28.735Z,12.30
2019-03-21T16:37:59.586Z,12.30
2019-03-21T16:40:30.226Z,12.20
2019-03-21T16:43:01.179Z,12.20
2019-03-21T16:45:31.889Z,12.20
2019-03-21T16:48:02.582Z,12.20
2019-03-21T16:50:33.361Z,12.20
2019-03-21T16:53:04.156Z,12.20
2019-03-21T16:55:34.994Z,12.20
2019-03-21T16:58:05.836Z,12.10
2019-03-21T17:00:36.473Z,12.10
2019-03-21T17:03:07.282Z,12.00
2019-03-21T17:05:38.268Z,12.00
2019-03-21T17:08:11.583Z,12.00
2019-03-21T17:10:41.520Z,11.90
2019-03-21T17:13:12.294Z,11.90
2019-03-21T17:15:43.212Z,11.80
2019-03-21T17:18:13.862Z,11.80
2019-03-21T17:20:44.571Z,11.80
2019-03-21T17:23:16.454Z,11.80
2019-03-21T17:25:48.242Z,11.80
2019-03-21T17:28:18.993Z,11.70
2019-03-21T17:30:49.694Z,11.70
2019-03-21T17:33:20.419Z,11.70
2019-03-21T17:35:51.143Z,11.70
2019-03-21T17:38:21.854Z,11.70
2019-03-21T17:40:52.788Z,11.60
2019-03-21T17:43:23.566Z,11.60
2019-03-21T17:45:54.430Z,11.60
2019-03-21T17:48:25.281Z,11.60
2019-03-21T17:50:55.921Z,11.60
2019-03-21T17:53:27.631Z,11.60
2019-03-21T17:55:58.419Z,11.60
2019-03-21T17:58:29.102Z,11.60
2019-03-21T18:00:59.934Z,11.50
2019-03-21T18:03:30.573Z,11.60
2019-03-21T18:06:01.173Z,11.70
2019-03-21T18:08:31.901Z,11.70
2019-03-21T18:11:04.614Z,11.80
2019-03-21T18:13:35.628Z,11.70
2019-03-21T18:16:06.890Z,11.70
2019-03-21T18:18:38.578Z,11.70
2019-03-21T18:21:09.973Z,11.70
2019-03-21T18:23:40.806Z,11.70
2019-03-21T18:26:11.401Z,11.70
2019-03-21T18:28:42.095Z,11.70
2019-03-21T18:31:12.798Z,11.70
2019-03-21T18:33:43.386Z,11.70
2019-03-21T18:36:15.075Z,11.70
2019-03-21T18:38:57.427Z,11.60
2019-03-21T18:41:18.199Z,11.60
2019-03-21T18:43:48.930Z,11.60
2019-03-21T18:46:19.580Z,11.50
2019-03-21T18:48:50.448Z,11.50
2019-03-21T18:51:21.114Z,11.50
2019-03-21T18:53:52.056Z,11.40
2019-03-21T18:56:22.805Z,11.40
2019-03-21T18:58:53.560Z,11.30
2019-03-21T19:01:24.334Z,11.30
2019-03-21T19:03:55.181Z,11.20
2019-03-21T19:06:25.903Z,11.10
2019-03-21T19:08:56.846Z,11.10
2019-03-21T19:11:27.578Z,11.00
2019-03-21T19:13:59.559Z,10.90
2019-03-21T19:16:32.053Z,10.80
2019-03-21T19:19:02.729Z,10.80
2019-03-21T19:21:33.314Z,10.70
2019-03-21T19:24:04.030Z,10.70
2019-03-21T19:26:34.747Z,10.70
2019-03-21T19:29:05.461Z,10.70
2019-03-21T19:31:36.328Z,10.80
2019-03-21T19:34:07.222Z,10.80
2019-03-21T19:36:37.948Z,10.80
2019-03-21T19:39:10.216Z,10.80
2019-03-21T19:41:40.879Z,10.80
2019-03-21T19:44:12.741Z,10.80
2019-03-21T19:46:43.510Z,10.80
2019-03-21T19:49:15.264Z,10.70
2019-03-21T19:51:45.915Z,10.60
2019-03-21T19:54:16.755Z,10.50
2019-03-21T19:56:47.419Z,10.40
2019-03-21T19:59:18.191Z,10.40
2019-03-21T20:01:48.906Z,10.40
2019-03-21T20:04:19.531Z,10.40
2019-03-21T20:06:51.222Z,10.40
2019-03-21T20:09:21.959Z,10.50
2019-03-21T20:11:52.698Z,10.60
2019-03-21T20:14:23.411Z,10.70
2019-03-21T20:16:54.080Z,10.70
2019-03-21T20:19:24.901Z,10.70
2019-03-21T20:21:55.570Z,10.80
2019-03-21T20:24:26.278Z,10.80
2019-03-21T20:26:57.065Z,10.80
2019-03-21T20:29:27.690Z,10.80
2019-03-21T20:31:58.504Z,11.00
2019-03-21T20:34:29.299Z,10.90
2019-03-21T20:37:00.042Z,11.00
2019-03-21T20:39:30.698Z,11.00
2019-03-21T20:42:01.566Z,10.90
2019-03-21T20:44:32.166Z,10.90
2019-03-21T20:47:02.996Z,11.00
2019-03-21T20:49:33.843Z,11.00
2019-03-21T20:52:04.498Z,11.10
2019-03-21T20:54:35.240Z,11.00
2019-03-21T20:57:06.038Z,11.00
2019-03-21T20:59:36.677Z,11.00
2019-03-21T21:02:07.357Z,11.00
2019-03-21T21:04:38.034Z,11.00
2019-03-21T21:07:08.797Z,11.00
2019-03-21T21:09:39.412Z,11.00
2019-03-21T21:12:10.214Z,11.00
2019-03-21T21:14:40.849Z,11.00
2019-03-21T21:17:11.490Z,11.00
2019-03-21T21:19:42.223Z,11.00
2019-03-21T21:22:13.811Z,11.00
2019-03-21T21:24:44.559Z,10.90
2019-03-21T21:27:15.316Z,11.00
2019-03-21T21:29:46.030Z,11.00
2019-03-21T21:32:16.760Z,11.00
2019-03-21T21:34:47.561Z,10.90
2019-03-21T21:37:18.397Z,10.90
2019-03-21T21:39:49.160Z,10.90
2019-03-21T21:42:19.945Z,10.80
2019-03-21T21:44:50.743Z,10.80
2019-03-21T21:47:21.335Z,10.80
2019-03-21T21:49:52.003Z,10.80
2019-03-21T21:52:22.697Z,10.80
2019-03-21T21:54:53.354Z,10.80
2019-03-21T21:57:24.067Z,10.90
2019-03-21T21:59:54.692Z,10.80
2019-03-21T22:02:25.440Z,10.80
2019-03-21T22:04:56.130Z,10.80
2019-03-21T22:07:26.796Z,10.80
2019-03-21T22:09:57.694Z,10.80
2019-03-21T22:12:28.718Z,10.80
2019-03-21T22:14:59.322Z,10.80
2019-03-21T22:17:30.079Z,10.80
2019-03-21T22:20:00.717Z,10.70
2019-03-21T22:22:31.492Z,10.70
2019-03-21T22:25:02.084Z,10.70
2019-03-21T22:27:32.869Z,10.70
2019-03-21T22:30:04.441Z,10.70
2019-03-21T22:32:35.279Z,10.70
2019-03-21T22:35:06.543Z,10.70
2019-03-21T22:37:37.135Z,10.70
2019-03-21T22:40:08.839Z,10.70
2019-03-21T22:42:39.546Z,10.70
2019-03-21T22:45:11.245Z,10.70
2019-03-21T22:47:42.233Z,10.70
2019-03-21T22:50:14.902Z,10.70
2019-03-21T22:52:45.854Z,10.70
2019-03-21T22:55:16.538Z,10.70
2019-03-21T22:57:47.134Z,10.70
2019-03-21T23:00:20.314Z,10.70
2019-03-21T23:02:52.636Z,10.60
2019-03-21T23:05:23.678Z,10.60
2019-03-21T23:07:54.422Z,10.50
2019-03-21T23:10:25.240Z,10.50
2019-03-21T23:12:56.167Z,10.60
2019-03-21T23:15:26.998Z,10.60
2019-03-21T23:17:57.701Z,10.50
2019-03-21T23:20:28.462Z,10.50
2019-03-21T23:22:59.357Z,10.50
2019-03-21T23:25:30.121Z,10.40
2019-03-21T23:28:01.078Z,10.40
2019-03-21T23:30:33.464Z,10.40
2019-03-21T23:33:04.479Z,10.40
2019-03-21T23:35:35.411Z,10.40
2019-03-21T23:38:06.192Z,10.40
2019-03-21T23:40:37.038Z,10.40
2019-03-21T23:43:07.861Z,10.30
2019-03-21T23:45:38.902Z,10.30
2019-03-21T23:48:09.665Z,10.30
2019-03-21T23:50:40.599Z,10.30
2019-03-21T23:53:11.617Z,10.30
2019-03-21T23:55:42.413Z,10.30
2019-03-21T23:58:13.217Z,10.30
